sensor_id;sensor_type;location;lat;lon;timestamp;pressure;altitude;pressure_sealevel;temperature;humidity
18755;BME280;35061;47.664;9.166;2023-02-18T00:01:21;102808.06;;;10.56;85.69
18755;BME280;35061;47.664;9.166;2023-02-18T00:03:50;102806.37;;;10.59;85.24
18755;BME280;35061;47.664;9.166;2023-02-18T00:06:31;102807.18;;;10.59;85.59
18755;BME280;35061;47.664;9.166;2023-02-18T00:09:01;102805.52;;;10.62;85.89
18755;BME280;35061;47.664;9.166;2023-02-18T00:11:31;102801.00;;;10.61;85.63
18755;BME280;35061;47.664;9.166;2023-02-18T00:14:01;102801.39;;;10.63;85.56
18755;BME280;35061;47.664;9.166;2023-02-18T00:16:30;102796.00;;;10.65;84.94
18755;BME280;35061;47.664;9.166;2023-02-18T00:19:02;102801.72;;;10.65;84.96
18755;BME280;35061;47.664;9.166;2023-02-18T00:21:32;102791.52;;;10.64;84.99
18755;BME280;35061;47.664;9.166;2023-02-18T00:24:01;102789.91;;;10.63;84.67
18755;BME280;35061;47.664;9.166;2023-02-18T00:26:29;102794.82;;;10.63;84.94
18755;BME280;35061;47.664;9.166;2023-02-18T00:28:56;102783.38;;;10.63;84.60
18755;BME280;35061;47.664;9.166;2023-02-18T00:31:30;102779.32;;;10.60;84.74
18755;BME280;35061;47.664;9.166;2023-02-18T00:33:59;102779.32;;;10.60;84.28
18755;BME280;35061;47.664;9.166;2023-02-18T00:36:27;102780.59;;;10.59;84.22
18755;BME280;35061;47.664;9.166;2023-02-18T00:39:00;102791.68;;;10.57;84.13
18755;BME280;35061;47.664;9.166;2023-02-18T00:41:30;102778.34;;;10.50;84.93
18755;BME280;35061;47.664;9.166;2023-02-18T00:43:58;102787.37;;;10.49;84.76
18755;BME280;35061;47.664;9.166;2023-02-18T00:46:27;102785.41;;;10.45;84.80
18755;BME280;35061;47.664;9.166;2023-02-18T00:48:55;102785.89;;;10.40;85.84
18755;BME280;35061;47.664;9.166;2023-02-18T00:51:23;102776.12;;;10.41;85.57
18755;BME280;35061;47.664;9.166;2023-02-18T00:53:52;102777.30;;;10.40;85.41
18755;BME280;35061;47.664;9.166;2023-02-18T00:56:20;102780.56;;;10.42;85.21
18755;BME280;35061;47.664;9.166;2023-02-18T00:58:48;102774.45;;;10.40;85.38
18755;BME280;35061;47.664;9.166;2023-02-18T01:01:17;102780.99;;;10.41;85.70
18755;BME280;35061;47.664;9.166;2023-02-18T01:03:45;102778.11;;;10.41;85.88
18755;BME280;35061;47.664;9.166;2023-02-18T01:06:13;102786.32;;;10.42;85.93
18755;BME280;35061;47.664;9.166;2023-02-18T01:08:41;102776.90;;;10.42;86.90
18755;BME280;35061;47.664;9.166;2023-02-18T01:11:10;102769.91;;;10.43;86.43
18755;BME280;35061;47.664;9.166;2023-02-18T01:13:39;102777.26;;;10.44;86.87
18755;BME280;35061;47.664;9.166;2023-02-18T01:16:07;102753.09;;;10.45;86.57
18755;BME280;35061;47.664;9.166;2023-02-18T01:18:37;102760.06;;;10.44;86.88
18755;BME280;35061;47.664;9.166;2023-02-18T01:21:06;102749.79;;;10.46;86.33
18755;BME280;35061;47.664;9.166;2023-02-18T01:23:38;102749.79;;;10.46;86.12
18755;BME280;35061;47.664;9.166;2023-02-18T01:26:07;102748.52;;;10.47;86.20
18755;BME280;35061;47.664;9.166;2023-02-18T01:28:36;102750.61;;;10.47;85.85
18755;BME280;35061;47.664;9.166;2023-02-18T01:31:10;102745.31;;;10.45;86.03
18755;BME280;35061;47.664;9.166;2023-02-18T01:33:39;102750.22;;;10.45;86.03
18755;BME280;35061;47.664;9.166;2023-02-18T01:36:08;102756.04;;;10.41;86.40
18755;BME280;35061;47.664;9.166;2023-02-18T01:38:36;102747.47;;;10.41;85.83
18755;BME280;35061;47.664;9.166;2023-02-18T01:41:05;102752.77;;;10.39;85.90
18755;BME280;35061;47.664;9.166;2023-02-18T01:43:33;102749.56;;;10.37;85.99
18755;BME280;35061;47.664;9.166;2023-02-18T01:46:13;102752.41;;;10.37;85.84
18755;BME280;35061;47.664;9.166;2023-02-18T01:51:22;102759.47;;;10.32;86.33
18755;BME280;35061;47.664;9.166;2023-02-18T01:54:04;102764.02;;;10.30;86.54
18755;BME280;35061;47.664;9.166;2023-02-18T01:56:47;102759.21;;;10.27;87.21
18755;BME280;35061;47.664;9.166;2023-02-18T01:59:20;102744.53;;;10.25;86.67
18755;BME280;35061;47.664;9.166;2023-02-18T02:01:51;102738.45;;;10.23;86.26
18755;BME280;35061;47.664;9.166;2023-02-18T02:04:20;102731.91;;;10.22;85.97
18755;BME280;35061;47.664;9.166;2023-02-18T02:06:48;102749.17;;;10.18;86.69
18755;BME280;35061;47.664;9.166;2023-02-18T02:09:18;102740.21;;;10.16;86.42
18755;BME280;35061;47.664;9.166;2023-02-18T02:14:46;102738.25;;;10.13;87.06
18755;BME280;35061;47.664;9.166;2023-02-18T02:20:41;102745.94;;;10.16;87.20
18755;BME280;35061;47.664;9.166;2023-02-18T02:31:59;102741.32;;;10.23;87.24
18755;BME280;35061;47.664;9.166;2023-02-18T02:34:55;102740.84;;;10.24;86.88
18755;BME280;35061;47.664;9.166;2023-02-18T02:43:23;102709.64;;;10.30;86.50
18755;BME280;35061;47.664;9.166;2023-02-18T02:46:05;102701.85;;;10.30;86.50
18755;BME280;35061;47.664;9.166;2023-02-18T02:51:25;102703.82;;;10.33;86.26
18755;BME280;35061;47.664;9.166;2023-02-18T02:53:54;102702.57;;;10.34;86.43
18755;BME280;35061;47.664;9.166;2023-02-18T02:56:34;102697.31;;;10.33;86.29
18755;BME280;35061;47.664;9.166;2023-02-18T02:59:05;102690.67;;;10.36;86.04
18755;BME280;35061;47.664;9.166;2023-02-18T03:02:14;102689.88;;;10.36;86.14
18755;BME280;35061;47.664;9.166;2023-02-18T03:11:05;102680.83;;;10.37;85.78
18755;BME280;35061;47.664;9.166;2023-02-18T03:18:59;102670.27;;;10.34;85.65
18755;BME280;35061;47.664;9.166;2023-02-18T03:21:32;102671.05;;;10.34;85.55
18755;BME280;35061;47.664;9.166;2023-02-18T03:24:09;102666.24;;;10.31;85.51
18755;BME280;35061;47.664;9.166;2023-02-18T03:26:44;102668.56;;;10.37;85.31
18755;BME280;35061;47.664;9.166;2023-02-18T03:29:14;102672.69;;;10.36;85.18
18755;BME280;35061;47.664;9.166;2023-02-18T03:31:46;102666.15;;;10.35;85.10
18755;BME280;35061;47.664;9.166;2023-02-18T03:34:19;102679.55;;;10.38;85.02
18755;BME280;35061;47.664;9.166;2023-02-18T03:36:51;102665.23;;;10.38;84.91
18755;BME280;35061;47.664;9.166;2023-02-18T03:39:22;102673.05;;;10.38;84.96
18755;BME280;35061;47.664;9.166;2023-02-18T03:41:52;102673.05;;;10.38;84.89
18755;BME280;35061;47.664;9.166;2023-02-18T03:44:20;102671.45;;;10.37;84.88
18755;BME280;35061;47.664;9.166;2023-02-18T03:46:48;102681.19;;;10.39;84.74
18755;BME280;35061;47.664;9.166;2023-02-18T03:49:15;102670.20;;;10.38;84.77
18755;BME280;35061;47.664;9.166;2023-02-18T03:51:43;102672.23;;;10.37;84.74
18755;BME280;35061;47.664;9.166;2023-02-18T03:54:11;102674.65;;;10.39;84.50
18755;BME280;35061;47.664;9.166;2023-02-18T03:56:41;102670.20;;;10.38;84.60
18755;BME280;35061;47.664;9.166;2023-02-18T03:59:10;102670.53;;;10.40;84.48
18755;BME280;35061;47.664;9.166;2023-02-18T04:01:39;102664.91;;;10.36;84.57
18755;BME280;35061;47.664;9.166;2023-02-18T04:04:06;102669.35;;;10.37;84.57
18755;BME280;35061;47.664;9.166;2023-02-18T04:06:34;102676.71;;;10.38;84.51
18755;BME280;35061;47.664;9.166;2023-02-18T04:09:02;102670.98;;;10.38;84.50
18755;BME280;35061;47.664;9.166;2023-02-18T04:11:37;102668.92;;;10.39;84.42
18755;BME280;35061;47.664;9.166;2023-02-18T04:14:05;102674.74;;;10.35;84.53
18755;BME280;35061;47.664;9.166;2023-02-18T04:16:33;102689.88;;;10.36;84.39
18755;BME280;35061;47.664;9.166;2023-02-18T04:19:01;102680.83;;;10.37;84.28
18755;BME280;35061;47.664;9.166;2023-02-18T04:21:29;102682.43;;;10.38;84.13
18755;BME280;35061;47.664;9.166;2023-02-18T04:23:57;102677.95;;;10.37;84.15
18755;BME280;35061;47.664;9.166;2023-02-18T04:26:24;102686.55;;;10.37;84.10
18755;BME280;35061;47.664;9.166;2023-02-18T04:28:52;102677.95;;;10.37;84.04
18755;BME280;35061;47.664;9.166;2023-02-18T04:31:20;102671.05;;;10.34;83.93
18755;BME280;35061;47.664;9.166;2023-02-18T04:33:48;102678.87;;;10.34;84.03
18755;BME280;35061;47.664;9.166;2023-02-18T04:36:15;102669.45;;;10.33;83.87
18755;BME280;35061;47.664;9.166;2023-02-18T04:38:43;102667.48;;;10.30;83.85
18755;BME280;35061;47.664;9.166;2023-02-18T04:41:11;102652.34;;;10.30;83.70
18755;BME280;35061;47.664;9.166;2023-02-18T04:43:39;102651.56;;;10.29;83.58
18755;BME280;35061;47.664;9.166;2023-02-18T04:46:07;102655.75;;;10.25;83.63
18755;BME280;35061;47.664;9.166;2023-02-18T04:48:35;102660.23;;;10.26;83.49
18755;BME280;35061;47.664;9.166;2023-02-18T04:51:03;102655.42;;;10.23;83.67
18755;BME280;35061;47.664;9.166;2023-02-18T04:53:31;102660.78;;;10.21;83.56
18755;BME280;35061;47.664;9.166;2023-02-18T04:55:59;102669.80;;;10.19;83.60
18755;BME280;35061;47.664;9.166;2023-02-18T04:58:27;102660.39;;;10.18;83.70
18755;BME280;35061;47.664;9.166;2023-02-18T05:00:59;102655.91;;;10.17;83.86
18755;BME280;35061;47.664;9.166;2023-02-18T05:03:28;102663.27;;;10.18;83.88
18755;BME280;35061;47.664;9.166;2023-02-18T05:05:57;102651.37;;;10.20;83.69
18755;BME280;35061;47.664;9.166;2023-02-18T05:08:25;102655.06;;;10.21;83.66
18755;BME280;35061;47.664;9.166;2023-02-18T05:10:52;102649.70;;;10.23;83.54
18755;BME280;35061;47.664;9.166;2023-02-18T05:13:20;102662.38;;;10.22;83.57
18755;BME280;35061;47.664;9.166;2023-02-18T05:15:49;102652.97;;;10.21;83.50
18755;BME280;35061;47.664;9.166;2023-02-18T05:18:17;102663.53;;;10.24;83.37
18755;BME280;35061;47.664;9.166;2023-02-18T05:20:45;102650.84;;;10.25;83.29
18755;BME280;35061;47.664;9.166;2023-02-18T05:23:12;102652.09;;;10.24;83.22
18755;BME280;35061;47.664;9.166;2023-02-18T05:25:41;102649.21;;;10.24;82.90
18755;BME280;35061;47.664;9.166;2023-02-18T05:28:08;102658.20;;;10.26;82.89
18755;BME280;35061;47.664;9.166;2023-02-18T05:30:36;102651.98;;;10.28;82.55
18755;BME280;35061;47.664;9.166;2023-02-18T05:33:04;102644.66;;;10.27;82.21
18755;BME280;35061;47.664;9.166;2023-02-18T05:35:32;102643.42;;;10.28;82.08
18755;BME280;35061;47.664;9.166;2023-02-18T05:37:59;102640.54;;;10.28;81.95
18755;BME280;35061;47.664;9.166;2023-02-18T05:40:27;102645.38;;;10.31;81.86
18755;BME280;35061;47.664;9.166;2023-02-18T05:42:55;102647.45;;;10.30;81.71
18755;BME280;35061;47.664;9.166;2023-02-18T05:45:23;102642.54;;;10.31;81.50
18755;BME280;35061;47.664;9.166;2023-02-18T05:47:50;102647.45;;;10.30;81.23
18755;BME280;35061;47.664;9.166;2023-02-18T05:50:18;102635.63;;;10.28;80.82
18755;BME280;35061;47.664;9.166;2023-02-18T05:52:46;102649.96;;;10.28;80.75
18755;BME280;35061;47.664;9.166;2023-02-18T05:55:14;102649.14;;;10.28;80.59
18755;BME280;35061;47.664;9.166;2023-02-18T05:57:41;102643.42;;;10.28;80.75
18755;BME280;35061;47.664;9.166;2023-02-18T06:00:10;102653.27;;;10.27;80.40
18755;BME280;35061;47.664;9.166;2023-02-18T06:02:38;102651.66;;;10.26;80.47
18755;BME280;35061;47.664;9.166;2023-02-18T06:05:06;102648.42;;;10.24;80.39
18755;BME280;35061;47.664;9.166;2023-02-18T06:07:34;102639.56;;;10.18;80.14
18755;BME280;35061;47.664;9.166;2023-02-18T06:10:03;102643.23;;;10.18;80.21
18755;BME280;35061;47.664;9.166;2023-02-18T06:12:31;102636.36;;;10.16;80.26
18755;BME280;35061;47.664;9.166;2023-02-18T06:14:58;102639.66;;;10.14;80.13
18755;BME280;35061;47.664;9.166;2023-02-18T06:17:26;102636.09;;;10.10;80.16
18755;BME280;35061;47.664;9.166;2023-02-18T06:19:54;102635.70;;;10.08;80.21
18755;BME280;35061;47.664;9.166;2023-02-18T06:22:21;102639.46;;;10.05;80.33
18755;BME280;35061;47.664;9.166;2023-02-18T06:24:49;102648.13;;;10.01;80.60
18755;BME280;35061;47.664;9.166;2023-02-18T06:27:17;102648.59;;;10.00;80.78
18755;BME280;35061;47.664;9.166;2023-02-18T06:29:45;102650.29;;;9.97;80.80
18755;BME280;35061;47.664;9.166;2023-02-18T06:32:12;102637.56;;;9.98;80.80
18755;BME280;35061;47.664;9.166;2023-02-18T06:34:40;102649.11;;;9.95;80.86
18755;BME280;35061;47.664;9.166;2023-02-18T06:37:08;102645.80;;;9.96;80.86
18755;BME280;35061;47.664;9.166;2023-02-18T06:39:35;102647.51;;;9.94;80.90
18755;BME280;35061;47.664;9.166;2023-02-18T06:42:05;102644.63;;;9.94;80.97
18755;BME280;35061;47.664;9.166;2023-02-18T06:44:32;102643.02;;;9.93;81.14
18755;BME280;35061;47.664;9.166;2023-02-18T06:47:03;102635.70;;;9.91;81.13
18755;BME280;35061;47.664;9.166;2023-02-18T06:49:30;102641.00;;;9.93;81.17
18755;BME280;35061;47.664;9.166;2023-02-18T06:51:58;102643.02;;;9.93;81.08
18755;BME280;35061;47.664;9.166;2023-02-18T06:54:26;102638.91;;;9.94;81.05
18755;BME280;35061;47.664;9.166;2023-02-18T06:56:53;102640.51;;;9.95;81.02
18755;BME280;35061;47.664;9.166;2023-02-18T06:59:21;102634.00;;;9.94;80.88
18755;BME280;35061;47.664;9.166;2023-02-18T07:01:49;102632.83;;;9.91;80.81
18755;BME280;35061;47.664;9.166;2023-02-18T07:04:17;102631.22;;;9.90;80.78
18755;BME280;35061;47.664;9.166;2023-02-18T07:06:44;102633.74;;;9.88;80.71
18755;BME280;35061;47.664;9.166;2023-02-18T07:09:12;102641.85;;;9.90;80.72
18755;BME280;35061;47.664;9.166;2023-02-18T07:11:40;102626.38;;;9.87;80.81
18755;BME280;35061;47.664;9.166;2023-02-18T07:14:07;102639.01;;;9.90;80.69
18755;BME280;35061;47.664;9.166;2023-02-18T07:16:35;102635.70;;;9.91;80.58
18755;BME280;35061;47.664;9.166;2023-02-18T07:19:03;102649.93;;;9.95;80.46
18755;BME280;35061;47.664;9.166;2023-02-18T07:21:31;102647.41;;;9.97;80.33
18755;BME280;35061;47.664;9.166;2023-02-18T07:23:58;102644.92;;;9.99;80.19
18755;BME280;35061;47.664;9.166;2023-02-18T07:26:26;102647.70;;;10.03;80.19
18755;BME280;35061;47.664;9.166;2023-02-18T07:28:54;102652.51;;;10.06;79.87
18755;BME280;35061;47.664;9.166;2023-02-18T07:31:22;102647.54;;;10.10;79.77
18755;BME280;35061;47.664;9.166;2023-02-18T07:33:49;102649.41;;;10.17;79.65
18755;BME280;35061;47.664;9.166;2023-02-18T07:36:17;102646.76;;;10.26;79.31
18755;BME280;35061;47.664;9.166;2023-02-18T07:38:45;102648.52;;;10.37;78.93
18755;BME280;35061;47.664;9.166;2023-02-18T07:41:19;102642.63;;;10.44;78.67
18755;BME280;35061;47.664;9.166;2023-02-18T07:43:47;102637.08;;;10.53;78.44
18755;BME280;35061;47.664;9.166;2023-02-18T07:46:15;102640.12;;;10.63;78.29
18755;BME280;35061;47.664;9.166;2023-02-18T07:48:43;102642.34;;;10.71;77.27
18755;BME280;35061;47.664;9.166;2023-02-18T07:51:12;102639.85;;;10.73;77.21
18755;BME280;35061;47.664;9.166;2023-02-18T07:53:40;102648.78;;;10.75;76.96
18755;BME280;35061;47.664;9.166;2023-02-18T07:56:08;102641.36;;;10.78;76.65
18755;BME280;35061;47.664;9.166;2023-02-18T07:58:37;102651.43;;;10.83;76.73
18755;BME280;35061;47.664;9.166;2023-02-18T08:01:10;102647.70;;;10.86;76.81
18755;BME280;35061;47.664;9.166;2023-02-18T08:03:41;102648.75;;;10.92;76.22
18755;BME280;35061;47.664;9.166;2023-02-18T08:06:20;102647.28;;;11.00;76.59
18755;BME280;35061;47.664;9.166;2023-02-18T08:08:48;102646.69;;;11.22;75.66
18755;BME280;35061;47.664;9.166;2023-02-18T08:11:16;102663.34;;;11.27;74.67
18755;BME280;35061;47.664;9.166;2023-02-18T08:13:46;102663.20;;;11.31;74.98
18755;BME280;35061;47.664;9.166;2023-02-18T08:16:16;102659.57;;;11.30;74.74
18755;BME280;35061;47.664;9.166;2023-02-18T08:18:44;102664.38;;;11.34;74.39
18755;BME280;35061;47.664;9.166;2023-02-18T08:21:15;102658.76;;;11.30;74.15
18755;BME280;35061;47.664;9.166;2023-02-18T08:23:43;102652.22;;;11.29;74.08
18755;BME280;35061;47.664;9.166;2023-02-18T08:26:12;102659.38;;;11.38;74.44
18755;BME280;35061;47.664;9.166;2023-02-18T08:28:40;102657.61;;;11.40;74.21
18755;BME280;35061;47.664;9.166;2023-02-18T08:31:15;102658.33;;;11.44;73.59
18755;BME280;35061;47.664;9.166;2023-02-18T08:33:43;102661.47;;;11.50;73.80
18755;BME280;35061;47.664;9.166;2023-02-18T08:36:11;102651.01;;;11.56;73.76
18755;BME280;35061;47.664;9.166;2023-02-18T08:38:38;102648.26;;;11.66;73.42
18755;BME280;35061;47.664;9.166;2023-02-18T08:41:08;102650.58;;;11.71;73.68
18755;BME280;35061;47.664;9.166;2023-02-18T08:43:36;102656.56;;;11.77;72.93
18755;BME280;35061;47.664;9.166;2023-02-18T08:46:04;102652.41;;;11.78;72.82
18755;BME280;35061;47.664;9.166;2023-02-18T08:48:32;102648.98;;;11.83;72.74
18755;BME280;35061;47.664;9.166;2023-02-18T08:51:10;102653.82;;;11.86;72.61
18755;BME280;35061;47.664;9.166;2023-02-18T08:53:38;102638.97;;;11.87;72.40
18755;BME280;35061;47.664;9.166;2023-02-18T08:56:09;102636.95;;;11.88;72.10
18755;BME280;35061;47.664;9.166;2023-02-18T08:58:37;102646.00;;;11.86;71.58
18755;BME280;35061;47.664;9.166;2023-02-18T09:01:07;102645.31;;;11.82;71.42
18755;BME280;35061;47.664;9.166;2023-02-18T09:03:36;102639.56;;;11.82;71.18
18755;BME280;35061;47.664;9.166;2023-02-18T09:06:04;102643.71;;;11.81;71.05
18755;BME280;35061;47.664;9.166;2023-02-18T09:08:32;102642.11;;;11.80;71.17
18755;BME280;35061;47.664;9.166;2023-02-18T09:11:02;102631.88;;;11.79;70.91
18755;BME280;35061;47.664;9.166;2023-02-18T09:13:34;102633.35;;;11.84;70.99
18755;BME280;35061;47.664;9.166;2023-02-18T09:16:07;102624.42;;;11.82;70.65
18755;BME280;35061;47.664;9.166;2023-02-18T09:18:37;102613.95;;;11.88;70.83
18755;BME280;35061;47.664;9.166;2023-02-18T09:21:07;102613.53;;;11.90;70.81
18755;BME280;35061;47.664;9.166;2023-02-18T09:23:36;102613.95;;;11.88;70.26
18755;BME280;35061;47.664;9.166;2023-02-18T09:26:05;102611.66;;;11.96;70.79
18755;BME280;35061;47.664;9.166;2023-02-18T09:28:35;102622.59;;;12.01;70.71
18755;BME280;35061;47.664;9.166;2023-02-18T09:31:10;102603.20;;;12.05;70.19
18755;BME280;35061;47.664;9.166;2023-02-18T09:33:41;102606.41;;;12.07;70.11
18755;BME280;35061;47.664;9.166;2023-02-18T09:36:11;102609.05;;;12.14;70.26
18755;BME280;35061;47.664;9.166;2023-02-18T09:38:39;102605.23;;;12.18;69.94
18755;BME280;35061;47.664;9.166;2023-02-18T09:44:01;102599.27;;;12.25;69.67
18755;BME280;35061;47.664;9.166;2023-02-18T09:46:35;102602.67;;;12.33;69.28
18755;BME280;35061;47.664;9.166;2023-02-18T09:49:26;102601.95;;;12.41;69.46
18755;BME280;35061;47.664;9.166;2023-02-18T09:51:56;102599.80;;;12.46;68.75
18755;BME280;35061;47.664;9.166;2023-02-18T09:54:28;102595.97;;;12.49;68.91
18755;BME280;35061;47.664;9.166;2023-02-18T09:56:57;102599.99;;;12.51;68.76
18755;BME280;35061;47.664;9.166;2023-02-18T09:59:26;102602.38;;;12.53;68.37
18755;BME280;35061;47.664;9.166;2023-02-18T10:01:54;102604.93;;;12.51;68.23
18755;BME280;35061;47.664;9.166;2023-02-18T10:04:29;102596.66;;;12.53;68.18
18755;BME280;35061;47.664;9.166;2023-02-18T10:06:59;102604.02;;;12.54;68.08
18755;BME280;35061;47.664;9.166;2023-02-18T10:09:37;102591.91;;;12.59;68.07
18755;BME280;35061;47.664;9.166;2023-02-18T10:12:16;102602.02;;;12.64;68.42
18755;BME280;35061;47.664;9.166;2023-02-18T10:14:53;102595.68;;;12.69;67.73
18755;BME280;35061;47.664;9.166;2023-02-18T10:17:27;102597.15;;;12.74;67.98
18755;BME280;35061;47.664;9.166;2023-02-18T10:19:57;102589.01;;;12.72;67.81
18755;BME280;35061;47.664;9.166;2023-02-18T10:22:28;102606.14;;;12.76;67.95
18755;BME280;35061;47.664;9.166;2023-02-18T10:24:58;102603.00;;;12.83;67.72
18755;BME280;35061;47.664;9.166;2023-02-18T10:27:33;102592.31;;;12.83;67.40
18755;BME280;35061;47.664;9.166;2023-02-18T10:32:46;102592.77;;;12.82;66.44
18755;BME280;35061;47.664;9.166;2023-02-18T10:35:27;102593.78;;;12.88;66.84
18755;BME280;35061;47.664;9.166;2023-02-18T10:38:10;102590.41;;;12.90;67.17
18755;BME280;35061;47.664;9.166;2023-02-18T10:41:04;102589.37;;;12.96;67.17
18755;BME280;35061;47.664;9.166;2023-02-18T10:43:57;102574.00;;;12.90;65.94
18755;BME280;35061;47.664;9.166;2023-02-18T10:52:21;102596.16;;;12.90;66.63
18755;BME280;35061;47.664;9.166;2023-02-18T10:55:05;102579.66;;;12.81;66.32
18755;BME280;35061;47.664;9.166;2023-02-18T10:57:34;102582.07;;;12.82;66.72
18755;BME280;35061;47.664;9.166;2023-02-18T11:00:26;102572.03;;;12.87;66.73
18755;BME280;35061;47.664;9.166;2023-02-18T11:03:17;102565.04;;;12.88;66.25
18755;BME280;35061;47.664;9.166;2023-02-18T11:05:47;102570.66;;;12.92;66.78
18755;BME280;35061;47.664;9.166;2023-02-18T11:08:27;102563.14;;;12.94;66.56
18755;BME280;35061;47.664;9.166;2023-02-18T11:10:56;102568.44;;;12.96;66.16
18755;BME280;35061;47.664;9.166;2023-02-18T11:13:29;102551.70;;;13.04;66.51
18755;BME280;35061;47.664;9.166;2023-02-18T11:16:10;102566.48;;;13.15;66.22
18755;BME280;35061;47.664;9.166;2023-02-18T11:18:41;102554.18;;;13.15;65.25
18755;BME280;35061;47.664;9.166;2023-02-18T11:21:44;102540.94;;;13.17;65.19
18755;BME280;35061;47.664;9.166;2023-02-18T11:24:15;102543.39;;;13.28;65.16
18755;BME280;35061;47.664;9.166;2023-02-18T11:26:43;102528.05;;;13.31;64.81
18755;BME280;35061;47.664;9.166;2023-02-18T11:29:18;102528.41;;;13.43;64.97
18755;BME280;35061;47.664;9.166;2023-02-18T11:31:50;102534.76;;;13.50;64.39
18755;BME280;35061;47.664;9.166;2023-02-18T11:34:21;102541.79;;;13.59;64.56
18755;BME280;35061;47.664;9.166;2023-02-18T11:36:50;102498.63;;;13.59;63.75
18755;BME280;35061;47.664;9.166;2023-02-18T11:39:26;102518.47;;;13.66;63.70
18755;BME280;35061;47.664;9.166;2023-02-18T11:41:57;102513.01;;;13.59;63.02
18755;BME280;35061;47.664;9.166;2023-02-18T11:44:36;102510.16;;;13.68;63.76
18755;BME280;35061;47.664;9.166;2023-02-18T11:49:43;102496.30;;;13.85;62.89
18755;BME280;35061;47.664;9.166;2023-02-18T11:52:25;102499.05;;;13.98;63.52
18755;BME280;35061;47.664;9.166;2023-02-18T11:55:04;102485.12;;;14.06;62.75
18755;BME280;35061;47.664;9.166;2023-02-18T11:57:35;102477.92;;;14.10;62.29
18755;BME280;35061;47.664;9.166;2023-02-18T12:00:20;102483.55;;;14.14;62.67
18755;BME280;35061;47.664;9.166;2023-02-18T12:02:49;102477.30;;;14.16;62.20
18755;BME280;35061;47.664;9.166;2023-02-18T12:05:23;102465.47;;;14.14;61.80
18755;BME280;35061;47.664;9.166;2023-02-18T12:07:57;102463.08;;;14.12;61.40
18755;BME280;35061;47.664;9.166;2023-02-18T12:10:30;102470.44;;;14.22;62.23
18755;BME280;35061;47.664;9.166;2023-02-18T12:13:06;102469.98;;;14.24;62.22
18755;BME280;35061;47.664;9.166;2023-02-18T12:16:08;102453.01;;;14.26;61.79
18755;BME280;35061;47.664;9.166;2023-02-18T12:19:16;102450.26;;;14.22;60.82
18755;BME280;35061;47.664;9.166;2023-02-18T12:22:50;102472.98;;;14.11;60.48
18755;BME280;35061;47.664;9.166;2023-02-18T12:25:08;102451.08;;;14.04;60.73
18755;BME280;35061;47.664;9.166;2023-02-18T12:36:32;102439.83;;;13.88;60.73
18755;BME280;35061;47.664;9.166;2023-02-18T12:39:40;102432.47;;;13.87;60.75
18755;BME280;35061;47.664;9.166;2023-02-18T12:45:27;102429.59;;;13.87;60.81
18755;BME280;35061;47.664;9.166;2023-02-18T12:54:16;102409.41;;;13.77;61.37
18755;BME280;35061;47.664;9.166;2023-02-18T12:57:13;102407.98;;;13.73;61.11
18755;BME280;35061;47.664;9.166;2023-02-18T13:03:07;102393.43;;;13.76;61.13
18755;BME280;35061;47.664;9.166;2023-02-18T13:11:00;102371.71;;;13.94;60.78
18755;BME280;35061;47.664;9.166;2023-02-18T13:13:38;102369.46;;;13.98;60.11
18755;BME280;35061;47.664;9.166;2023-02-18T13:16:16;102376.16;;;14.04;59.74
18755;BME280;35061;47.664;9.166;2023-02-18T13:21:22;102375.05;;;14.11;59.41
18755;BME280;35061;47.664;9.166;2023-02-18T13:23:56;102358.41;;;14.15;59.65
18755;BME280;35061;47.664;9.166;2023-02-18T13:26:25;102351.84;;;14.24;59.85
18755;BME280;35061;47.664;9.166;2023-02-18T13:29:25;102354.19;;;14.35;59.70
18755;BME280;35061;47.664;9.166;2023-02-18T13:35:04;102347.62;;;14.44;59.12
18755;BME280;35061;47.664;9.166;2023-02-18T13:40:22;102336.07;;;14.53;59.26
18755;BME280;35061;47.664;9.166;2023-02-18T13:42:52;102337.18;;;14.56;59.04
18755;BME280;35061;47.664;9.166;2023-02-18T13:47:55;102342.32;;;14.61;58.54
18755;BME280;35061;47.664;9.166;2023-02-18T13:58:22;102347.88;;;14.74;58.69
18755;BME280;35061;47.664;9.166;2023-02-18T14:01:21;102336.53;;;14.61;58.75
18755;BME280;35061;47.664;9.166;2023-02-18T14:03:56;102331.59;;;14.52;59.19
18755;BME280;35061;47.664;9.166;2023-02-18T14:06:33;102323.25;;;14.54;59.56
18755;BME280;35061;47.664;9.166;2023-02-18T14:11:59;102318.77;;;14.53;59.55
18755;BME280;35061;47.664;9.166;2023-02-18T14:14:43;102315.24;;;14.58;59.70
18755;BME280;35061;47.664;9.166;2023-02-18T14:17:28;102304.35;;;14.53;59.38
18755;BME280;35061;47.664;9.166;2023-02-18T14:25:21;102311.55;;;14.58;59.55
18755;BME280;35061;47.664;9.166;2023-02-18T14:27:51;102303.08;;;14.54;59.29
18755;BME280;35061;47.664;9.166;2023-02-18T14:32:54;102317.17;;;14.52;59.49
18755;BME280;35061;47.664;9.166;2023-02-18T14:41:46;102308.90;;;14.45;59.61
18755;BME280;35061;47.664;9.166;2023-02-18T14:49:55;102312.95;;;14.19;59.67
18755;BME280;35061;47.664;9.166;2023-02-18T14:52:37;102309.42;;;14.06;59.65
18755;BME280;35061;47.664;9.166;2023-02-18T14:55:37;102305.46;;;13.94;59.76
18755;BME280;35061;47.664;9.166;2023-02-18T14:58:06;102312.16;;;13.91;59.85
18755;BME280;35061;47.664;9.166;2023-02-18T15:00:41;102307.23;;;13.82;59.77
18755;BME280;35061;47.664;9.166;2023-02-18T15:03:15;102300.52;;;13.76;60.03
18755;BME280;35061;47.664;9.166;2023-02-18T15:05:44;102299.88;;;13.72;60.27
18755;BME280;35061;47.664;9.166;2023-02-18T15:08:21;102295.23;;;13.65;60.38
18755;BME280;35061;47.664;9.166;2023-02-18T15:10:55;102302.75;;;13.62;60.56
18755;BME280;35061;47.664;9.166;2023-02-18T15:13:41;102306.41;;;13.53;60.75
18755;BME280;35061;47.664;9.166;2023-02-18T15:16:19;102316.02;;;13.50;60.80